sensor_id;sensor_type;location;lat;lon;timestamp;P1;durP1;ratioP1;P2;durP2;ratioP2
24961;SDS011;12992;50.884;13.668;2023-04-03T00:01:02;3.85;;;1.48;;
24961;SDS011;12992;50.884;13.668;2023-04-03T00:03:28;5.00;;;1.45;;
24961;SDS011;12992;50.884;13.668;2023-04-03T00:05:53;4.22;;;1.30;;
24961;SDS011;12992;50.884;13.668;2023-04-03T00:08:19;3.03;;;1.58;;
24961;SDS011;12992;50.884;13.668;2023-04-03T00:10:45;2.42;;;1.10;;
24961;SDS011;12992;50.884;13.668;2023-04-03T00:13:11;2.60;;;1.23;;
24961;SDS011;12992;50.884;13.668;2023-04-03T00:15:37;4.35;;;1.30;;
24961;SDS011;12992;50.884;13.668;2023-04-03T00:18:03;5.25;;;1.55;;
24961;SDS011;12992;50.884;13.668;2023-04-03T00:20:29;3.35;;;1.42;;
24961;SDS011;12992;50.884;13.668;2023-04-03T00:22:54;4.00;;;1.30;;
24961;SDS011;12992;50.884;13.668;2023-04-03T00:25:20;4.60;;;1.30;;
24961;SDS011;12992;50.884;13.668;2023-04-03T00:27:46;3.55;;;1.60;;
24961;SDS011;12992;50.884;13.668;2023-04-03T00:30:13;4.18;;;1.33;;
24961;SDS011;12992;50.884;13.668;2023-04-03T00:32:40;5.75;;;1.50;;
24961;SDS011;12992;50.884;13.668;2023-04-03T00:35:05;2.78;;;1.38;;
24961;SDS011;12992;50.884;13.668;2023-04-03T00:37:31;5.18;;;1.33;;
24961;SDS011;12992;50.884;13.668;2023-04-03T00:39:57;3.25;;;1.50;;
24961;SDS011;12992;50.884;13.668;2023-04-03T00:42:22;2.80;;;1.30;;
24961;SDS011;12992;50.884;13.668;2023-04-03T00:47:15;3.20;;;1.30;;
24961;SDS011;12992;50.884;13.668;2023-04-03T00:49:42;2.60;;;1.50;;
24961;SDS011;12992;50.884;13.668;2023-04-03T00:52:15;3.97;;;1.20;;
24961;SDS011;12992;50.884;13.668;2023-04-03T00:54:44;5.45;;;1.35;;
24961;SDS011;12992;50.884;13.668;2023-04-03T00:57:12;4.47;;;1.98;;
24961;SDS011;12992;50.884;13.668;2023-04-03T00:59:39;6.28;;;1.40;;
24961;SDS011;12992;50.884;13.668;2023-04-03T01:02:09;2.70;;;1.00;;
24961;SDS011;12992;50.884;13.668;2023-04-03T01:04:36;6.55;;;1.50;;
24961;SDS011;12992;50.884;13.668;2023-04-03T01:07:10;2.88;;;1.30;;
24961;SDS011;12992;50.884;13.668;2023-04-03T01:09:38;7.22;;;1.52;;
24961;SDS011;12992;50.884;13.668;2023-04-03T01:12:14;3.85;;;1.40;;
24961;SDS011;12992;50.884;13.668;2023-04-03T01:14:46;5.00;;;1.48;;
24961;SDS011;12992;50.884;13.668;2023-04-03T01:17:34;3.47;;;1.63;;
24961;SDS011;12992;50.884;13.668;2023-04-03T01:20:28;2.53;;;1.40;;
24961;SDS011;12992;50.884;13.668;2023-04-03T01:25:22;4.70;;;1.33;;
24961;SDS011;12992;50.884;13.668;2023-04-03T01:27:49;3.97;;;1.50;;
24961;SDS011;12992;50.884;13.668;2023-04-03T01:30:17;3.65;;;1.05;;
24961;SDS011;12992;50.884;13.668;2023-04-03T01:32:44;4.25;;;1.48;;
24961;SDS011;12992;50.884;13.668;2023-04-03T01:35:12;2.42;;;1.52;;
24961;SDS011;12992;50.884;13.668;2023-04-03T01:37:37;3.65;;;1.40;;
24961;SDS011;12992;50.884;13.668;2023-04-03T01:40:03;5.72;;;1.35;;
24961;SDS011;12992;50.884;13.668;2023-04-03T01:42:29;3.50;;;1.55;;
24961;SDS011;12992;50.884;13.668;2023-04-03T01:44:55;3.20;;;1.52;;
24961;SDS011;12992;50.884;13.668;2023-04-03T01:47:21;2.47;;;1.48;;
24961;SDS011;12992;50.884;13.668;2023-04-03T01:49:47;6.28;;;1.85;;
24961;SDS011;12992;50.884;13.668;2023-04-03T01:52:12;4.70;;;1.35;;
24961;SDS011;12992;50.884;13.668;2023-04-03T01:54:37;5.63;;;1.77;;
24961;SDS011;12992;50.884;13.668;2023-04-03T01:57:03;1.27;;;1.10;;
24961;SDS011;12992;50.884;13.668;2023-04-03T01:59:28;4.63;;;1.65;;
24961;SDS011;12992;50.884;13.668;2023-04-03T02:01:54;2.65;;;1.38;;
24961;SDS011;12992;50.884;13.668;2023-04-03T02:04:20;2.42;;;1.42;;
24961;SDS011;12992;50.884;13.668;2023-04-03T02:06:46;2.53;;;1.20;;
24961;SDS011;12992;50.884;13.668;2023-04-03T02:09:11;3.38;;;1.27;;
24961;SDS011;12992;50.884;13.668;2023-04-03T02:11:37;5.07;;;1.83;;
24961;SDS011;12992;50.884;13.668;2023-04-03T02:14:03;4.60;;;1.63;;
24961;SDS011;12992;50.884;13.668;2023-04-03T02:16:28;5.43;;;1.50;;
24961;SDS011;12992;50.884;13.668;2023-04-03T02:18:54;5.47;;;2.00;;
24961;SDS011;12992;50.884;13.668;2023-04-03T02:21:19;1.73;;;1.35;;
24961;SDS011;12992;50.884;13.668;2023-04-03T02:23:44;3.60;;;1.55;;
24961;SDS011;12992;50.884;13.668;2023-04-03T02:26:11;2.55;;;1.40;;
24961;SDS011;12992;50.884;13.668;2023-04-03T02:28:39;4.30;;;1.60;;
24961;SDS011;12992;50.884;13.668;2023-04-03T02:31:05;3.80;;;1.40;;
24961;SDS011;12992;50.884;13.668;2023-04-03T02:33:31;4.45;;;1.60;;
24961;SDS011;12992;50.884;13.668;2023-04-03T02:35:58;1.45;;;1.10;;
24961;SDS011;12992;50.884;13.668;2023-04-03T02:38:24;4.80;;;1.52;;
24961;SDS011;12992;50.884;13.668;2023-04-03T02:40:51;5.38;;;1.40;;
24961;SDS011;12992;50.884;13.668;2023-04-03T02:43:17;3.58;;;1.33;;
24961;SDS011;12992;50.884;13.668;2023-04-03T02:45:43;3.40;;;1.65;;
24961;SDS011;12992;50.884;13.668;2023-04-03T02:48:09;3.42;;;1.60;;
24961;SDS011;12992;50.884;13.668;2023-04-03T02:50:34;5.40;;;1.33;;
24961;SDS011;12992;50.884;13.668;2023-04-03T02:53:00;2.65;;;1.35;;
24961;SDS011;12992;50.884;13.668;2023-04-03T02:55:25;1.85;;;1.08;;
24961;SDS011;12992;50.884;13.668;2023-04-03T02:57:53;3.75;;;1.73;;
24961;SDS011;12992;50.884;13.668;2023-04-03T03:00:19;3.45;;;1.25;;
24961;SDS011;12992;50.884;13.668;2023-04-03T03:02:44;2.92;;;1.52;;
24961;SDS011;12992;50.884;13.668;2023-04-03T03:05:10;3.15;;;1.60;;
24961;SDS011;12992;50.884;13.668;2023-04-03T03:07:35;4.75;;;1.38;;
24961;SDS011;12992;50.884;13.668;2023-04-03T03:10:00;6.10;;;1.90;;
24961;SDS011;12992;50.884;13.668;2023-04-03T03:12:26;3.53;;;1.60;;
24961;SDS011;12992;50.884;13.668;2023-04-03T03:14:51;4.50;;;1.50;;
24961;SDS011;12992;50.884;13.668;2023-04-03T03:17:17;6.32;;;1.65;;
24961;SDS011;12992;50.884;13.668;2023-04-03T03:19:43;3.35;;;1.40;;
24961;SDS011;12992;50.884;13.668;2023-04-03T03:22:08;3.20;;;1.60;;
24961;SDS011;12992;50.884;13.668;2023-04-03T03:24:34;4.05;;;1.60;;
24961;SDS011;12992;50.884;13.668;2023-04-03T03:26:59;3.08;;;1.30;;
24961;SDS011;12992;50.884;13.668;2023-04-03T03:29:24;6.78;;;1.65;;
24961;SDS011;12992;50.884;13.668;2023-04-03T03:31:51;2.97;;;1.48;;
24961;SDS011;12992;50.884;13.668;2023-04-03T03:34:16;3.70;;;1.35;;
24961;SDS011;12992;50.884;13.668;2023-04-03T03:36:42;3.05;;;1.20;;
24961;SDS011;12992;50.884;13.668;2023-04-03T03:39:08;4.85;;;1.50;;
24961;SDS011;12992;50.884;13.668;2023-04-03T03:41:33;4.40;;;1.50;;
24961;SDS011;12992;50.884;13.668;2023-04-03T03:43:59;4.00;;;1.48;;
24961;SDS011;12992;50.884;13.668;2023-04-03T03:46:26;5.40;;;1.38;;
24961;SDS011;12992;50.884;13.668;2023-04-03T03:48:52;2.90;;;1.48;;
24961;SDS011;12992;50.884;13.668;2023-04-03T03:51:18;4.60;;;1.60;;
24961;SDS011;12992;50.884;13.668;2023-04-03T03:53:43;4.63;;;1.67;;
24961;SDS011;12992;50.884;13.668;2023-04-03T03:56:13;4.63;;;1.73;;
24961;SDS011;12992;50.884;13.668;2023-04-03T03:58:39;3.10;;;1.90;;
24961;SDS011;12992;50.884;13.668;2023-04-03T04:01:06;3.55;;;1.45;;
24961;SDS011;12992;50.884;13.668;2023-04-03T04:03:37;6.38;;;1.50;;
24961;SDS011;12992;50.884;13.668;2023-04-03T04:06:03;3.78;;;1.50;;
24961;SDS011;12992;50.884;13.668;2023-04-03T04:08:28;4.00;;;1.35;;
24961;SDS011;12992;50.884;13.668;2023-04-03T04:10:54;3.95;;;1.48;;
24961;SDS011;12992;50.884;13.668;2023-04-03T04:13:20;3.38;;;1.50;;
24961;SDS011;12992;50.884;13.668;2023-04-03T04:15:45;6.05;;;1.77;;
24961;SDS011;12992;50.884;13.668;2023-04-03T04:18:12;5.07;;;2.00;;
24961;SDS011;12992;50.884;13.668;2023-04-03T04:20:40;8.52;;;1.60;;
24961;SDS011;12992;50.884;13.668;2023-04-03T04:23:06;3.55;;;1.55;;
24961;SDS011;12992;50.884;13.668;2023-04-03T04:25:32;5.55;;;1.75;;
24961;SDS011;12992;50.884;13.668;2023-04-03T04:27:58;2.03;;;1.20;;
24961;SDS011;12992;50.884;13.668;2023-04-03T04:30:23;4.18;;;1.40;;
24961;SDS011;12992;50.884;13.668;2023-04-03T04:32:50;3.08;;;1.13;;
24961;SDS011;12992;50.884;13.668;2023-04-03T04:35:15;5.20;;;1.77;;
24961;SDS011;12992;50.884;13.668;2023-04-03T04:37:42;3.17;;;1.50;;
24961;SDS011;12992;50.884;13.668;2023-04-03T04:40:08;6.82;;;1.60;;
24961;SDS011;12992;50.884;13.668;2023-04-03T04:42:34;3.72;;;1.77;;
24961;SDS011;12992;50.884;13.668;2023-04-03T04:45:00;3.90;;;1.65;;
24961;SDS011;12992;50.884;13.668;2023-04-03T04:47:25;5.30;;;1.65;;
24961;SDS011;12992;50.884;13.668;2023-04-03T04:49:51;6.30;;;1.90;;
24961;SDS011;12992;50.884;13.668;2023-04-03T04:52:16;4.43;;;1.83;;
24961;SDS011;12992;50.884;13.668;2023-04-03T04:54:42;6.38;;;1.55;;
24961;SDS011;12992;50.884;13.668;2023-04-03T04:57:08;8.43;;;1.48;;
24961;SDS011;12992;50.884;13.668;2023-04-03T04:59:33;4.90;;;1.60;;
24961;SDS011;12992;50.884;13.668;2023-04-03T05:01:59;5.05;;;1.35;;
24961;SDS011;12992;50.884;13.668;2023-04-03T05:04:26;9.95;;;3.65;;
24961;SDS011;12992;50.884;13.668;2023-04-03T05:06:57;15.95;;;6.30;;
24961;SDS011;12992;50.884;13.668;2023-04-03T05:09:26;6.72;;;2.58;;
24961;SDS011;12992;50.884;13.668;2023-04-03T05:11:52;5.95;;;1.83;;
24961;SDS011;12992;50.884;13.668;2023-04-03T05:14:21;4.80;;;1.25;;
24961;SDS011;12992;50.884;13.668;2023-04-03T05:16:47;4.60;;;1.45;;
24961;SDS011;12992;50.884;13.668;2023-04-03T05:19:13;5.18;;;1.38;;
24961;SDS011;12992;50.884;13.668;2023-04-03T05:21:39;6.50;;;1.77;;
24961;SDS011;12992;50.884;13.668;2023-04-03T05:24:10;5.35;;;1.63;;
24961;SDS011;12992;50.884;13.668;2023-04-03T05:26:39;8.40;;;1.80;;
24961;SDS011;12992;50.884;13.668;2023-04-03T05:29:05;6.45;;;1.50;;
24961;SDS011;12992;50.884;13.668;2023-04-03T05:31:31;5.20;;;1.55;;
24961;SDS011;12992;50.884;13.668;2023-04-03T05:33:56;4.40;;;1.63;;
24961;SDS011;12992;50.884;13.668;2023-04-03T05:36:22;6.50;;;1.60;;
24961;SDS011;12992;50.884;13.668;2023-04-03T05:38:53;5.80;;;1.75;;
24961;SDS011;12992;50.884;13.668;2023-04-03T05:41:18;5.90;;;2.10;;
24961;SDS011;12992;50.884;13.668;2023-04-03T05:43:46;3.45;;;1.58;;
24961;SDS011;12992;50.884;13.668;2023-04-03T05:46:13;4.00;;;1.60;;
24961;SDS011;12992;50.884;13.668;2023-04-03T05:51:15;2.90;;;1.58;;
24961;SDS011;12992;50.884;13.668;2023-04-03T05:53:43;4.47;;;2.20;;
24961;SDS011;12992;50.884;13.668;2023-04-03T05:56:10;4.80;;;1.80;;
24961;SDS011;12992;50.884;13.668;2023-04-03T05:58:38;5.55;;;2.15;;
24961;SDS011;12992;50.884;13.668;2023-04-03T06:01:04;6.53;;;2.13;;
24961;SDS011;12992;50.884;13.668;2023-04-03T06:03:31;5.47;;;1.65;;
24961;SDS011;12992;50.884;13.668;2023-04-03T06:05:56;3.97;;;1.90;;
24961;SDS011;12992;50.884;13.668;2023-04-03T06:08:23;4.32;;;1.95;;
24961;SDS011;12992;50.884;13.668;2023-04-03T06:10:48;4.53;;;1.95;;
24961;SDS011;12992;50.884;13.668;2023-04-03T06:13:15;5.07;;;1.95;;
24961;SDS011;12992;50.884;13.668;2023-04-03T06:15:40;6.07;;;2.00;;
24961;SDS011;12992;50.884;13.668;2023-04-03T06:18:07;4.43;;;1.77;;
24961;SDS011;12992;50.884;13.668;2023-04-03T06:20:33;6.50;;;2.47;;
24961;SDS011;12992;50.884;13.668;2023-04-03T06:22:59;3.90;;;1.92;;
24961;SDS011;12992;50.884;13.668;2023-04-03T06:25:26;6.97;;;2.25;;
24961;SDS011;12992;50.884;13.668;2023-04-03T06:27:51;6.85;;;2.08;;
24961;SDS011;12992;50.884;13.668;2023-04-03T06:30:17;6.40;;;2.42;;
24961;SDS011;12992;50.884;13.668;2023-04-03T06:32:42;6.60;;;2.40;;
24961;SDS011;12992;50.884;13.668;2023-04-03T06:35:08;6.57;;;2.65;;
24961;SDS011;12992;50.884;13.668;2023-04-03T06:37:33;5.07;;;1.98;;
24961;SDS011;12992;50.884;13.668;2023-04-03T06:39:59;6.00;;;2.53;;
24961;SDS011;12992;50.884;13.668;2023-04-03T06:42:25;4.93;;;2.40;;
24961;SDS011;12992;50.884;13.668;2023-04-03T06:47:22;3.95;;;2.20;;
24961;SDS011;12992;50.884;13.668;2023-04-03T06:49:48;4.30;;;2.20;;
24961;SDS011;12992;50.884;13.668;2023-04-03T06:52:13;6.40;;;2.70;;
24961;SDS011;12992;50.884;13.668;2023-04-03T06:54:39;6.55;;;2.40;;
24961;SDS011;12992;50.884;13.668;2023-04-03T06:57:05;5.43;;;2.45;;
24961;SDS011;12992;50.884;13.668;2023-04-03T06:59:31;4.82;;;2.28;;
24961;SDS011;12992;50.884;13.668;2023-04-03T07:01:57;3.42;;;2.08;;
24961;SDS011;12992;50.884;13.668;2023-04-03T07:04:23;8.90;;;2.28;;
24961;SDS011;12992;50.884;13.668;2023-04-03T07:06:48;7.10;;;2.00;;
24961;SDS011;12992;50.884;13.668;2023-04-03T07:09:14;6.30;;;2.40;;
24961;SDS011;12992;50.884;13.668;2023-04-03T07:11:39;4.57;;;2.28;;
24961;SDS011;12992;50.884;13.668;2023-04-03T07:14:05;6.30;;;2.47;;
24961;SDS011;12992;50.884;13.668;2023-04-03T07:16:31;6.65;;;2.40;;
24961;SDS011;12992;50.884;13.668;2023-04-03T07:18:57;8.75;;;2.30;;
24961;SDS011;12992;50.884;13.668;2023-04-03T07:21:22;4.80;;;1.80;;
24961;SDS011;12992;50.884;13.668;2023-04-03T07:23:48;6.32;;;2.35;;
24961;SDS011;12992;50.884;13.668;2023-04-03T07:26:13;3.80;;;1.95;;
24961;SDS011;12992;50.884;13.668;2023-04-03T07:28:38;6.03;;;2.10;;
24961;SDS011;12992;50.884;13.668;2023-04-03T07:31:06;3.97;;;2.28;;
24961;SDS011;12992;50.884;13.668;2023-04-03T07:33:34;6.25;;;2.20;;
24961;SDS011;12992;50.884;13.668;2023-04-03T07:36:00;4.95;;;2.13;;
24961;SDS011;12992;50.884;13.668;2023-04-03T07:38:25;6.03;;;2.20;;
24961;SDS011;12992;50.884;13.668;2023-04-03T07:40:51;4.72;;;2.10;;
24961;SDS011;12992;50.884;13.668;2023-04-03T07:43:18;6.25;;;2.22;;
24961;SDS011;12992;50.884;13.668;2023-04-03T07:45:45;4.20;;;2.20;;
24961;SDS011;12992;50.884;13.668;2023-04-03T07:48:11;3.47;;;2.03;;
24961;SDS011;12992;50.884;13.668;2023-04-03T07:50:39;3.72;;;2.08;;
24961;SDS011;12992;50.884;13.668;2023-04-03T07:53:05;6.70;;;2.00;;
24961;SDS011;12992;50.884;13.668;2023-04-03T07:55:31;4.72;;;2.13;;
24961;SDS011;12992;50.884;13.668;2023-04-03T07:57:57;5.47;;;2.17;;
24961;SDS011;12992;50.884;13.668;2023-04-03T08:00:22;3.47;;;2.08;;
24961;SDS011;12992;50.884;13.668;2023-04-03T08:02:48;10.02;;;3.00;;
24961;SDS011;12992;50.884;13.668;2023-04-03T08:05:17;5.78;;;2.78;;
24961;SDS011;12992;50.884;13.668;2023-04-03T08:07:43;6.88;;;2.75;;
24961;SDS011;12992;50.884;13.668;2023-04-03T08:10:09;9.65;;;2.40;;
24961;SDS011;12992;50.884;13.668;2023-04-03T08:12:34;4.07;;;2.72;;
24961;SDS011;12992;50.884;13.668;2023-04-03T08:15:01;4.50;;;2.40;;
24961;SDS011;12992;50.884;13.668;2023-04-03T08:17:27;4.72;;;2.50;;
24961;SDS011;12992;50.884;13.668;2023-04-03T08:19:53;7.25;;;3.88;;
24961;SDS011;12992;50.884;13.668;2023-04-03T08:22:18;9.32;;;2.55;;
24961;SDS011;12992;50.884;13.668;2023-04-03T08:24:43;12.30;;;3.08;;
24961;SDS011;12992;50.884;13.668;2023-04-03T08:27:08;9.55;;;4.55;;
24961;SDS011;12992;50.884;13.668;2023-04-03T08:29:34;6.85;;;3.05;;
24961;SDS011;12992;50.884;13.668;2023-04-03T08:31:59;6.65;;;2.58;;
24961;SDS011;12992;50.884;13.668;2023-04-03T08:34:24;5.40;;;2.50;;
24961;SDS011;12992;50.884;13.668;2023-04-03T08:36:50;5.25;;;2.65;;
24961;SDS011;12992;50.884;13.668;2023-04-03T08:39:15;3.60;;;1.92;;
24961;SDS011;12992;50.884;13.668;2023-04-03T08:41:42;6.78;;;2.88;;
24961;SDS011;12992;50.884;13.668;2023-04-03T08:52:04;8.10;;;2.10;;
24961;SDS011;12992;50.884;13.668;2023-04-03T08:54:35;7.05;;;2.55;;
24961;SDS011;12992;50.884;13.668;2023-04-03T08:57:17;5.72;;;2.33;;
24961;SDS011;12992;50.884;13.668;2023-04-03T08:59:51;8.32;;;2.95;;
24961;SDS011;12992;50.884;13.668;2023-04-03T09:02:24;5.50;;;2.45;;
24961;SDS011;12992;50.884;13.668;2023-04-03T09:04:57;8.63;;;3.08;;
24961;SDS011;12992;50.884;13.668;2023-04-03T09:07:31;6.38;;;2.08;;
24961;SDS011;12992;50.884;13.668;2023-04-03T09:10:03;9.40;;;1.80;;
24961;SDS011;12992;50.884;13.668;2023-04-03T09:12:32;4.78;;;2.00;;
24961;SDS011;12992;50.884;13.668;2023-04-03T09:20:17;3.63;;;2.10;;
24961;SDS011;12992;50.884;13.668;2023-04-03T09:22:45;4.25;;;2.20;;
24961;SDS011;12992;50.884;13.668;2023-04-03T09:25:18;5.55;;;2.20;;
24961;SDS011;12992;50.884;13.668;2023-04-03T09:27:46;6.57;;;2.03;;
24961;SDS011;12992;50.884;13.668;2023-04-03T09:30:20;2.90;;;1.60;;
24961;SDS011;12992;50.884;13.668;2023-04-03T09:32:48;5.20;;;1.85;;
24961;SDS011;12992;50.884;13.668;2023-04-03T09:40:39;3.25;;;1.55;;
24961;SDS011;12992;50.884;13.668;2023-04-03T09:45:40;5.03;;;1.90;;
24961;SDS011;12992;50.884;13.668;2023-04-03T09:50:41;3.17;;;1.77;;
24961;SDS011;12992;50.884;13.668;2023-04-03T09:55:58;3.65;;;1.50;;
24961;SDS011;12992;50.884;13.668;2023-04-03T09:58:25;2.25;;;1.60;;
24961;SDS011;12992;50.884;13.668;2023-04-03T10:00:58;5.68;;;1.90;;
24961;SDS011;12992;50.884;13.668;2023-04-03T10:03:32;4.03;;;1.60;;
24961;SDS011;12992;50.884;13.668;2023-04-03T10:06:01;4.60;;;1.73;;
24961;SDS011;12992;50.884;13.668;2023-04-03T10:08:53;4.78;;;1.80;;
24961;SDS011;12992;50.884;13.668;2023-04-03T10:11:29;6.40;;;2.00;;
24961;SDS011;12992;50.884;13.668;2023-04-03T10:13:55;7.95;;;2.17;;
24961;SDS011;12992;50.884;13.668;2023-04-03T10:16:32;2.60;;;1.27;;
24961;SDS011;12992;50.884;13.668;2023-04-03T10:21:45;4.32;;;1.70;;
24961;SDS011;12992;50.884;13.668;2023-04-03T10:24:26;5.40;;;1.58;;
24961;SDS011;12992;50.884;13.668;2023-04-03T10:27:44;3.55;;;1.90;;
24961;SDS011;12992;50.884;13.668;2023-04-03T10:36:02;6.95;;;1.85;;
24961;SDS011;12992;50.884;13.668;2023-04-03T10:44:30;4.05;;;1.50;;
24961;SDS011;12992;50.884;13.668;2023-04-03T10:52:47;5.05;;;1.45;;
24961;SDS011;12992;50.884;13.668;2023-04-03T10:55:36;4.57;;;1.20;;
24961;SDS011;12992;50.884;13.668;2023-04-03T10:58:08;3.38;;;1.40;;
24961;SDS011;12992;50.884;13.668;2023-04-03T11:00:45;2.17;;;1.30;;
24961;SDS011;12992;50.884;13.668;2023-04-03T11:03:17;2.88;;;1.30;;
24961;SDS011;12992;50.884;13.668;2023-04-03T11:05:58;3.92;;;1.10;;
24961;SDS011;12992;50.884;13.668;2023-04-03T11:08:28;5.10;;;1.60;;
24961;SDS011;12992;50.884;13.668;2023-04-03T11:11:01;6.82;;;2.17;;
24961;SDS011;12992;50.884;13.668;2023-04-03T11:13:39;2.55;;;1.70;;
24961;SDS011;12992;50.884;13.668;2023-04-03T11:16:09;3.92;;;1.35;;
24961;SDS011;12992;50.884;13.668;2023-04-03T11:18:44;4.45;;;1.40;;
24961;SDS011;12992;50.884;13.668;2023-04-03T11:21:19;2.67;;;1.25;;
24961;SDS011;12992;50.884;13.668;2023-04-03T11:23:49;2.08;;;1.13;;
24961;SDS011;12992;50.884;13.668;2023-04-03T11:26:21;4.97;;;1.50;;
24961;SDS011;12992;50.884;13.668;2023-04-03T11:28:58;3.40;;;1.33;;
24961;SDS011;12992;50.884;13.668;2023-04-03T11:31:33;3.53;;;1.20;;
24961;SDS011;12992;50.884;13.668;2023-04-03T11:34:24;5.72;;;1.52;;
24961;SDS011;12992;50.884;13.668;2023-04-03T11:36:56;4.55;;;1.40;;
24961;SDS011;12992;50.884;13.668;2023-04-03T11:41:52;2.95;;;1.10;;
24961;SDS011;12992;50.884;13.668;2023-04-03T11:44:33;3.00;;;1.20;;
24961;SDS011;12992;50.884;13.668;2023-04-03T11:47:02;4.60;;;1.45;;
24961;SDS011;12992;50.884;13.668;2023-04-03T11:57:46;1.85;;;1.02;;
24961;SDS011;12992;50.884;13.668;2023-04-03T12:13:36;3.63;;;1.08;;
24961;SDS011;12992;50.884;13.668;2023-04-03T12:16:04;2.35;;;0.90;;
24961;SDS011;12992;50.884;13.668;2023-04-03T12:21:15;1.85;;;0.93;;
24961;SDS011;12992;50.884;13.668;2023-04-03T12:29:28;2.47;;;1.25;;
24961;SDS011;12992;50.884;13.668;2023-04-03T12:37:38;2.90;;;1.08;;
24961;SDS011;12992;50.884;13.668;2023-04-03T12:46:33;2.53;;;1.20;;
24961;SDS011;12992;50.884;13.668;2023-04-03T12:48:58;4.03;;;1.25;;
24961;SDS011;12992;50.884;13.668;2023-04-03T12:51:29;2.95;;;1.23;;
24961;SDS011;12992;50.884;13.668;2023-04-03T12:54:13;3.50;;;1.27;;
24961;SDS011;12992;50.884;13.668;2023-04-03T12:56:42;2.65;;;1.00;;
24961;SDS011;12992;50.884;13.668;2023-04-03T12:59:15;4.40;;;1.65;;
24961;SDS011;12992;50.884;13.668;2023-04-03T13:01:52;2.85;;;1.67;;
24961;SDS011;12992;50.884;13.668;2023-04-03T13:04:19;2.55;;;1.20;;
24961;SDS011;12992;50.884;13.668;2023-04-03T13:06:45;3.95;;;1.00;;
24961;SDS011;12992;50.884;13.668;2023-04-03T13:11:52;4.03;;;1.65;;
24961;SDS011;12992;50.884;13.668;2023-04-03T13:14:24;5.80;;;1.90;;
24961;SDS011;12992;50.884;13.668;2023-04-03T13:17:05;3.65;;;1.35;;
24961;SDS011;12992;50.884;13.668;2023-04-03T13:19:37;5.03;;;1.67;;
24961;SDS011;12992;50.884;13.668;2023-04-03T13:22:08;2.55;;;1.60;;
24961;SDS011;12992;50.884;13.668;2023-04-03T13:24:57;2.55;;;1.25;;
24961;SDS011;12992;50.884;13.668;2023-04-03T13:27:24;3.33;;;1.70;;
24961;SDS011;12992;50.884;13.668;2023-04-03T13:29:53;5.32;;;2.00;;
24961;SDS011;12992;50.884;13.668;2023-04-03T13:32:23;6.22;;;2.40;;
24961;SDS011;12992;50.884;13.668;2023-04-03T13:34:51;14.25;;;1.70;;
24961;SDS011;12992;50.884;13.668;2023-04-03T13:37:30;1.30;;;1.08;;
24961;SDS011;12992;50.884;13.668;2023-04-03T13:42:33;3.60;;;1.23;;
24961;SDS011;12992;50.884;13.668;2023-04-03T13:47:49;3.85;;;1.20;;
24961;SDS011;12992;50.884;13.668;2023-04-03T13:52:51;2.97;;;1.60;;
24961;SDS011;12992;50.884;13.668;2023-04-03T13:55:26;5.93;;;1.33;;
24961;SDS011;12992;50.884;13.668;2023-04-03T14:00:27;3.40;;;1.00;;
24961;SDS011;12992;50.884;13.668;2023-04-03T14:02:55;5.22;;;1.27;;
24961;SDS011;12992;50.884;13.668;2023-04-03T14:05:21;1.52;;;1.15;;
24961;SDS011;12992;50.884;13.668;2023-04-03T14:07:49;3.65;;;1.60;;
24961;SDS011;12992;50.884;13.668;2023-04-03T14:10:14;4.80;;;1.35;;
24961;SDS011;12992;50.884;13.668;2023-04-03T14:12:40;3.58;;;1.40;;
24961;SDS011;12992;50.884;13.668;2023-04-03T14:15:16;3.17;;;1.35;;
24961;SDS011;12992;50.884;13.668;2023-04-03T14:17:42;3.33;;;1.58;;
24961;SDS011;12992;50.884;13.668;2023-04-03T14:20:10;3.97;;;1.38;;
24961;SDS011;12992;50.884;13.668;2023-04-03T14:22:40;5.35;;;1.23;;
24961;SDS011;12992;50.884;13.668;2023-04-03T14:25:06;2.35;;;1.55;;
24961;SDS011;12992;50.884;13.668;2023-04-03T14:27:35;2.90;;;1.20;;
24961;SDS011;12992;50.884;13.668;2023-04-03T14:30:07;2.35;;;1.20;;
24961;SDS011;12992;50.884;13.668;2023-04-03T14:32:34;3.03;;;1.00;;
24961;SDS011;12992;50.884;13.668;2023-04-03T14:35:00;4.18;;;1.58;;
24961;SDS011;12992;50.884;13.668;2023-04-03T14:37:27;2.63;;;1.30;;
24961;SDS011;12992;50.884;13.668;2023-04-03T14:39:54;4.75;;;1.73;;
24961;SDS011;12992;50.884;13.668;2023-04-03T14:42:23;2.53;;;1.50;;
24961;SDS011;12992;50.884;13.668;2023-04-03T14:44:53;4.35;;;1.40;;
24961;SDS011;12992;50.884;13.668;2023-04-03T14:47:20;5.07;;;1.60;;
24961;SDS011;12992;50.884;13.668;2023-04-03T14:49:48;3.42;;;1.20;;
24961;SDS011;12992;50.884;13.668;2023-04-03T14:55:04;1.85;;;1.23;;
24961;SDS011;12992;50.884;13.668;2023-04-03T14:57:31;3.10;;;1.77;;
24961;SDS011;12992;50.884;13.668;2023-04-03T14:59:57;5.20;;;1.60;;
24961;SDS011;12992;50.884;13.668;2023-04-03T15:02:27;1.85;;;1.17;;
24961;SDS011;12992;50.884;13.668;2023-04-03T15:05:00;3.92;;;1.40;;
24961;SDS011;12992;50.884;13.668;2023-04-03T15:07:28;4.53;;;1.48;;
24961;SDS011;12992;50.884;13.668;2023-04-03T15:09:58;4.65;;;1.70;;
24961;SDS011;12992;50.884;13.668;2023-04-03T15:12:28;1.63;;;1.15;;
24961;SDS011;12992;50.884;13.668;2023-04-03T15:14:54;1.42;;;0.93;;
24961;SDS011;12992;50.884;13.668;2023-04-03T15:17:20;3.28;;;1.73;;
24961;SDS011;12992;50.884;13.668;2023-04-03T15:19:47;2.13;;;1.35;;
24961;SDS011;12992;50.884;13.668;2023-04-03T15:22:16;5.75;;;1.70;;
24961;SDS011;12992;50.884;13.668;2023-04-03T15:24:43;2.25;;;1.40;;
24961;SDS011;12992;50.884;13.668;2023-04-03T15:27:09;4.22;;;1.48;;
24961;SDS011;12992;50.884;13.668;2023-04-03T15:29:36;4.35;;;1.20;;
24961;SDS011;12992;50.884;13.668;2023-04-03T15:32:02;2.63;;;1.50;;
24961;SDS011;12992;50.884;13.668;2023-04-03T15:34:28;3.65;;;1.25;;
24961;SDS011;12992;50.884;13.668;2023-04-03T15:36:54;3.22;;;1.50;;
24961;SDS011;12992;50.884;13.668;2023-04-03T15:39:19;2.38;;;1.35;;
24961;SDS011;12992;50.884;13.668;2023-04-03T15:41:45;2.47;;;1.40;;
24961;SDS011;12992;50.884;13.668;2023-04-03T15:44:11;4.47;;;1.50;;
24961;SDS011;12992;50.884;13.668;2023-04-03T15:46:38;6.80;;;1.42;;
24961;SDS011;12992;50.884;13.668;2023-04-03T15:49:04;7.82;;;1.50;;
24961;SDS011;12992;50.884;13.668;2023-04-03T15:51:30;3.20;;;1.00;;
24961;SDS011;12992;50.884;13.668;2023-04-03T15:53:55;3.28;;;1.00;;
24961;SDS011;12992;50.884;13.668;2023-04-03T15:56:20;2.60;;;1.00;;
24961;SDS011;12992;50.884;13.668;2023-04-03T15:58:46;2.05;;;0.98;;
24961;SDS011;12992;50.884;13.668;2023-04-03T16:01:11;1.52;;;1.13;;
24961;SDS011;12992;50.884;13.668;2023-04-03T16:03:36;2.83;;;1.23;;
24961;SDS011;12992;50.884;13.668;2023-04-03T16:06:08;3.70;;;1.27;;
24961;SDS011;12992;50.884;13.668;2023-04-03T16:08:34;5.75;;;1.15;;
24961;SDS011;12992;50.884;13.668;2023-04-03T16:11:01;1.98;;;1.10;;
24961;SDS011;12992;50.884;13.668;2023-04-03T16:13:27;2.40;;;1.20;;
24961;SDS011;12992;50.884;13.668;2023-04-03T16:15:52;3.75;;;1.42;;
24961;SDS011;12992;50.884;13.668;2023-04-03T16:18:18;3.78;;;1.30;;
24961;SDS011;12992;50.884;13.668;2023-04-03T16:20:43;2.35;;;1.08;;
24961;SDS011;12992;50.884;13.668;2023-04-03T16:23:09;2.53;;;1.08;;
24961;SDS011;12992;50.884;13.668;2023-04-03T16:25:34;3.03;;;1.67;;
24961;SDS011;12992;50.884;13.668;2023-04-03T16:28:00;3.15;;;1.30;;
24961;SDS011;12992;50.884;13.668;2023-04-03T16:30:25;2.28;;;0.80;;
24961;SDS011;12992;50.884;13.668;2023-04-03T16:32:51;3.70;;;1.20;;
24961;SDS011;12992;50.884;13.668;2023-04-03T16:35:16;3.28;;;1.20;;